Time;durP1;ratioP1;P1;durP2;ratioP2;P2;SDS_P1;SDS_P2;PMS_P1;PMS_P2;Temp;Humidity;BMP_temperature;BMP_pressure;BME280_temperature;BME280_humidity;BME280_pressure;Samples;Min_cycle;Max_cycle;Signal;HPM_P1;HPM_P2
2021/08/09 00:01:36;;;;;;;4.43;2.30;;;;;;;15.05;100.00;100831.69;3600555;39;20488;-48
2021/08/09 00:04:04;;;;;;;5.93;2.23;;;;;;;15.02;100.00;100829.03;3606761;39;20498;-48
2021/08/09 00:06:34;;;;;;;5.07;2.60;;;;;;;14.98;100.00;100831.53;3608761;39;20449;-45
2021/08/09 00:09:02;;;;;;;9.00;2.50;;;;;;;15.08;100.00;100836.97;3606744;39;20498;-47
2021/08/09 00:11:30;;;;;;;6.33;2.13;;;;;;;15.08;100.00;100836.97;3602803;39;20876;-46
2021/08/09 00:13:58;;;;;;;5.80;2.73;;;;;;;15.09;100.00;100833.53;3609945;39;20609;-46
2021/08/09 00:16:26;;;;;;;7.53;2.33;;;;;;;15.02;100.00;100832.47;3609176;39;20528;-46
2021/08/09 00:18:53;;;;;;;6.53;2.30;;;;;;;15.02;100.00;100834.22;3610231;39;20507;-46
2021/08/09 00:21:21;;;;;;;4.03;1.90;;;;;;;14.99;100.00;100838.47;3603414;39;20488;-46
2021/08/09 00:23:50;;;;;;;7.33;2.73;;;;;;;14.92;100.00;100836.56;3610376;39;20497;-45
2021/08/09 00:26:20;;;;;;;5.37;2.40;;;;;;;15.02;100.00;100834.22;3601732;39;20807;-46
2021/08/09 00:28:47;;;;;;;13.60;2.80;;;;;;;15.01;100.00;100835.91;3602092;39;20763;-46
2021/08/09 00:31:15;;;;;;;4.00;2.60;;;;;;;15.03;100.00;100835.97;3591855;39;20813;-50
2021/08/09 00:33:43;;;;;;;3.70;2.17;;;;;;;14.97;100.00;100829.78;3600269;39;20545;-47
2021/08/09 00:36:10;;;;;;;5.50;2.27;;;;;;;14.94;100.00;100827.13;3598149;39;20480;-44
2021/08/09 00:38:38;;;;;;;4.80;2.30;;;;;;;14.92;100.00;100826.19;3600247;39;20505;-49
2021/08/09 00:41:07;;;;;;;5.83;2.67;;;;;;;14.92;100.00;100836.56;3599628;39;20797;-43
2021/08/09 00:43:34;;;;;;;7.80;2.57;;;;;;;14.98;100.00;100834.13;3603682;39;20536;-46
2021/08/09 00:46:04;;;;;;;4.87;2.60;;;;;;;14.89;100.00;100833.91;3603215;39;20480;-46
2021/08/09 00:48:34;;;;;;;5.07;2.70;;;;;;;14.99;100.00;100828.09;3609973;39;20662;-47
2021/08/09 00:51:02;;;;;;;6.53;3.00;;;;;;;14.88;100.00;100833.88;3606287;39;20465;-49
2021/08/09 00:53:29;;;;;;;6.40;2.50;;;;;;;14.78;100.00;100840.53;3610457;39;20521;-46
2021/08/09 00:55:57;;;;;;;5.00;2.50;;;;;;;14.83;100.00;100836.34;3602950;39;20465;-48
2021/08/09 00:58:26;;;;;;;5.00;2.30;;;;;;;14.88;100.00;100839.06;3609564;39;20512;-47
2021/08/09 01:00:54;;;;;;;6.80;2.87;;;;;;;14.90;100.00;100835.66;3606424;39;20485;-46
2021/08/09 01:03:21;;;;;;;3.93;2.40;;;;;;;14.95;100.00;100844.44;3583132;39;20566;-45
2021/08/09 01:05:50;;;;;;;5.07;2.67;;;;;;;14.90;100.00;100833.06;3602131;39;20484;-45
2021/08/09 01:08:26;;;;;;;6.73;2.60;;;;;;;14.93;100.00;100846.13;3609677;39;20768;-45
2021/08/09 01:11:02;;;;;;;7.20;2.50;;;;;;;15.01;100.00;100835.91;3600473;39;20536;-46
2021/08/09 01:13:34;;;;;;;8.10;2.50;;;;;;;14.95;100.00;100841.84;3609354;39;20491;-46
2021/08/09 01:16:07;;;;;;;7.67;2.23;;;;;;;14.98;100.00;100836.72;3601992;39;20503;-46
2021/08/09 01:18:36;;;;;;;8.63;2.63;;;;;;;14.97;100.00;100834.97;3604750;39;20494;-44
2021/08/09 01:21:06;;;;;;;10.43;2.53;;;;;;;14.94;100.00;100845.31;3604247;39;20785;-45
2021/08/09 01:23:46;;;;;;;5.77;2.53;;;;;;;14.94;100.00;100839.22;3612089;39;20660;-46
2021/08/09 01:26:31;;;;;;;8.60;2.30;;;;;;;15.10;100.00;100845.66;3603927;39;20457;-46
2021/08/09 01:29:00;;;;;;;4.13;2.63;;;;;;;15.10;100.00;100838.75;3611832;39;20513;-47
2021/08/09 01:31:31;;;;;;;5.50;2.60;;;;;;;15.14;100.00;100839.72;3602246;39;20492;-49
2021/08/09 01:33:59;;;;;;;6.97;2.53;;;;;;;15.15;100.00;100843.16;3611817;39;20522;-47
2021/08/09 01:36:28;;;;;;;10.10;2.33;;;;;;;15.11;100.00;100842.22;3603537;39;21372;-48
2021/08/09 01:38:55;;;;;;;8.67;2.93;;;;;;;15.17;100.00;100836.31;3606693;39;20492;-46
2021/08/09 01:41:24;;;;;;;4.40;2.10;;;;;;;15.14;100.00;100841.41;3610547;39;20473;-46
2021/08/09 01:43:52;;;;;;;4.83;2.30;;;;;;;15.16;100.00;100840.63;3612015;39;20502;-47
2021/08/09 01:46:22;;;;;;;7.83;2.40;;;;;;;15.18;100.00;100843.25;3604313;39;20473;-44
2021/08/09 01:48:50;;;;;;;3.47;1.70;;;;;;;15.16;100.00;100838.03;3593330;39;20486;-44
2021/08/09 01:51:17;;;;;;;5.37;2.50;;;;;;;15.16;100.00;100840.63;3599947;39;20687;-49
2021/08/09 01:53:45;;;;;;;4.70;2.17;;;;;;;15.29;100.00;100833.13;3611135;39;20844;-49
2021/08/09 01:56:13;;;;;;;5.90;2.30;;;;;;;15.24;100.00;100840.81;3609369;39;20484;-48
2021/08/09 01:58:41;;;;;;;5.50;2.40;;;;;;;15.22;100.00;100840.75;3611735;39;20813;-47
2021/08/09 02:01:08;;;;;;;9.23;2.53;;;;;;;15.27;100.00;100843.47;3604468;39;20492;-44
2021/08/09 02:03:37;;;;;;;13.53;2.97;;;;;;;15.28;100.00;100839.16;3610772;39;20533;-46
2021/08/09 02:06:05;;;;;;;8.33;2.80;;;;;;;15.31;100.00;100840.13;3610003;39;20468;-45
2021/08/09 02:08:35;;;;;;;7.77;2.80;;;;;;;15.42;100.00;100847.28;3611954;39;20508;-46
2021/08/09 02:11:06;;;;;;;6.27;2.80;;;;;;;15.37;100.00;100841.97;3611142;39;20515;-47
2021/08/09 02:13:38;;;;;;;6.17;2.60;;;;;;;15.42;100.00;100849.88;3606777;39;20498;-46
2021/08/09 02:16:11;;;;;;;3.27;1.80;;;;;;;15.31;100.00;100852.22;3608093;39;20470;-49
2021/08/09 02:18:43;;;;;;;6.60;2.57;;;;;;;15.41;100.00;100850.72;3611861;39;20510;-46
2021/08/09 02:21:13;;;;;;;5.60;1.73;;;;;;;15.30;100.00;100853.94;3608163;39;20484;-49
2021/08/09 02:23:46;;;;;;;4.53;2.03;;;;;;;15.37;100.00;100854.97;3611539;39;20516;-48
2021/08/09 02:26:14;;;;;;;6.20;2.27;;;;;;;15.46;100.00;100860.38;3596404;39;20459;-46
2021/08/09 02:28:45;;;;;;;7.23;2.50;;;;;;;15.47;100.00;100861.25;3605589;39;20492;-50
2021/08/09 02:31:14;;;;;;;7.90;2.13;;;;;;;15.53;100.00;100864.88;3608146;39;20698;-48
2021/08/09 02:33:43;;;;;;;6.27;2.50;;;;;;;15.53;100.00;100857.09;3611742;39;20519;-46
2021/08/09 02:36:11;;;;;;;5.43;2.50;;;;;;;15.41;100.00;100869.78;3606973;39;20530;-46
2021/08/09 02:38:40;;;;;;;6.90;2.37;;;;;;;15.43;100.00;100865.50;3611711;39;20498;-46
2021/08/09 02:41:08;;;;;;;7.00;2.43;;;;;;;15.47;100.00;100864.75;3609812;39;20478;-47
2021/08/09 02:43:36;;;;;;;3.80;1.60;;;;;;;15.41;100.00;100864.59;3611723;39;20487;-47
2021/08/09 02:46:04;;;;;;;8.23;2.87;;;;;;;15.50;100.00;100857.00;3602229;39;20466;-46
2021/08/09 02:48:33;;;;;;;7.40;2.67;;;;;;;15.52;100.00;100865.72;3610803;39;20505;-44
2021/08/09 02:51:02;;;;;;;4.70;2.67;;;;;;;15.59;100.00;100863.28;3610268;39;20473;-46
2021/08/09 02:53:29;;;;;;;5.20;2.63;;;;;;;15.50;100.00;100870.00;3611602;39;20516;-45
2021/08/09 02:55:58;;;;;;;5.37;2.83;;;;;;;15.49;100.00;100865.66;3606831;39;20517;-51
2021/08/09 02:58:26;;;;;;;4.83;2.23;;;;;;;15.46;100.00;100868.19;3611602;39;20736;-45
2021/08/09 03:00:54;;;;;;;6.97;2.83;;;;;;;15.40;100.00;100873.25;3605952;39;20552;-45
2021/08/09 03:03:23;;;;;;;5.63;2.27;;;;;;;15.37;100.00;100870.56;3611761;39;20493;-45
2021/08/09 03:05:52;;;;;;;4.47;2.30;;;;;;;15.34;100.00;100875.69;3603529;39;20484;-43
2021/08/09 03:08:22;;;;;;;6.40;3.03;;;;;;;15.31;100.00;100873.00;3611061;39;20511;-50
2021/08/09 03:10:51;;;;;;;5.00;2.10;;;;;;;15.27;100.00;100873.78;3603751;39;20481;-44
2021/08/09 03:13:20;;;;;;;7.10;3.00;;;;;;;15.29;100.00;100878.19;3610904;39;20490;-47
2021/08/09 03:15:48;;;;;;;6.10;2.73;;;;;;;15.18;100.00;100870.09;3610101;39;20497;-48
2021/08/09 03:18:16;;;;;;;7.10;2.90;;;;;;;15.15;100.00;100870.06;3611523;39;20574;-49
2021/08/09 03:20:43;;;;;;;9.03;2.67;;;;;;;15.16;100.00;100860.50;3582488;39;20543;-48
2021/08/09 03:23:11;;;;;;;5.97;2.60;;;;;;;15.18;100.00;100870.09;3610720;39;20508;-47
2021/08/09 03:25:40;;;;;;;6.47;3.30;;;;;;;15.08;100.00;100873.34;3605318;39;20474;-47
2021/08/09 03:28:08;;;;;;;6.00;2.53;;;;;;;15.08;100.00;100878.53;3611318;39;20485;-48
2021/08/09 03:30:36;;;;;;;4.27;2.70;;;;;;;15.13;100.00;100876.94;3603726;39;20511;-45
2021/08/09 03:33:03;;;;;;;7.63;3.00;;;;;;;15.03;100.00;100887.94;3610688;39;20505;-48
2021/08/09 03:35:31;;;;;;;7.93;2.90;;;;;;;15.01;100.00;100881.81;3610419;39;20712;-44
2021/08/09 03:37:58;;;;;;;5.83;2.57;;;;;;;14.98;100.00;100880.03;3610943;39;20476;-49
2021/08/09 03:40:26;;;;;;;9.03;3.10;;;;;;;15.04;100.00;100877.59;3605454;39;20675;-46
2021/08/09 03:42:55;;;;;;;6.30;2.60;;;;;;;15.09;100.00;100890.69;3611613;39;20689;-44
2021/08/09 03:45:22;;;;;;;6.80;2.50;;;;;;;15.02;100.00;100886.19;3604915;39;20504;-50
2021/08/09 03:47:50;;;;;;;7.57;2.97;;;;;;;15.06;100.00;100890.59;3610421;39;20515;-47
2021/08/09 03:50:20;;;;;;;7.63;3.33;;;;;;;14.97;100.00;100897.31;3608474;39;20500;-46
2021/08/09 03:52:48;;;;;;;8.17;2.57;;;;;;;14.97;100.00;100897.31;3610672;39;20513;-48
2021/08/09 03:55:18;;;;;;;7.33;3.20;;;;;;;14.93;100.00;100898.06;3609697;39;20928;-44
2021/08/09 03:57:45;;;;;;;4.77;2.10;;;;;;;14.97;100.00;100899.03;3610608;39;20453;-45
2021/08/09 04:00:15;;;;;;;7.73;2.80;;;;;;;14.86;100.00;100903.94;3611585;39;20515;-48
2021/08/09 04:02:44;;;;;;;9.93;3.30;;;;;;;14.96;100.00;100905.97;3610483;39;20488;-44
2021/08/09 04:05:13;;;;;;;9.33;2.80;;;;;;;14.79;100.00;100909.81;3611487;39;20701;-46
2021/08/09 04:07:41;;;;;;;6.13;3.00;;;;;;;14.95;100.00;100909.41;3608207;39;20546;-45
2021/08/09 04:10:09;;;;;;;9.13;2.87;;;;;;;14.81;100.00;100908.13;3610163;39;20512;-46
2021/08/09 04:12:37;;;;;;;8.53;3.80;;;;;;;14.76;100.00;100917.53;3605403;39;20496;-48
2021/08/09 04:15:07;;;;;;;9.60;3.27;;;;;;;14.86;100.00;100919.53;3610582;39;20517;-48
2021/08/09 04:17:36;;;;;;;9.63;3.27;;;;;;;14.84;100.00;100916.03;3609132;39;20464;-46
2021/08/09 04:20:05;;;;;;;6.23;2.90;;;;;;;14.91;100.00;100912.75;3610985;39;20507;-45
2021/08/09 04:22:32;;;;;;;7.83;3.27;;;;;;;14.79;100.00;100913.31;3602597;39;20477;-44
2021/08/09 04:25:01;;;;;;;9.40;3.17;;;;;;;14.84;100.00;100916.03;3611188;39;20544;-48
2021/08/09 04:27:29;;;;;;;6.97;3.57;;;;;;;14.85;100.00;100922.97;3594861;39;20831;-47
2021/08/09 04:29:56;;;;;;;8.40;3.63;;;;;;;14.87;100.00;100923.88;3610531;39;20519;-47
2021/08/09 04:32:24;;;;;;;9.10;3.13;;;;;;;14.77;100.00;100925.34;3608380;39;20503;-49
2021/08/09 04:34:52;;;;;;;7.73;3.33;;;;;;;14.81;100.00;100931.50;3608495;39;20496;-46
2021/08/09 04:37:22;;;;;;;7.67;3.67;;;;;;;14.77;100.00;100934.88;3603048;39;20469;-47
2021/08/09 04:39:50;;;;;;;6.93;3.43;;;;;;;14.81;100.00;100937.59;3611065;39;20507;-45
2021/08/09 04:42:18;;;;;;;7.10;3.23;;;;;;;14.79;100.00;100936.69;3607587;39;20887;-48
2021/08/09 04:44:45;;;;;;;7.57;3.00;;;;;;;14.85;100.00;100941.16;3610773;39;20505;-45
2021/08/09 04:47:13;;;;;;;6.63;3.50;;;;;;;14.78;100.00;100936.63;3610071;39;20479;-48
2021/08/09 04:49:42;;;;;;;8.07;3.20;;;;;;;14.92;100.00;100943.06;3610849;39;20507;-47
2021/08/09 04:52:11;;;;;;;13.00;4.20;;;;;;;14.84;100.00;100937.69;3601313;39;20477;-47
2021/08/09 04:54:38;;;;;;;6.10;3.27;;;;;;;14.70;100.00;100945.06;3584976;39;20507;-49
2021/08/09 04:57:06;;;;;;;8.50;2.80;;;;;;;14.76;100.00;100944.38;3603848;39;20469;-48
2021/08/09 04:59:33;;;;;;;5.50;2.70;;;;;;;14.82;100.00;100946.28;3612479;39;20687;-47
2021/08/09 05:02:01;;;;;;;5.07;2.90;;;;;;;14.86;100.00;100958.50;3610719;39;20483;-50
2021/08/09 05:04:29;;;;;;;10.03;3.60;;;;;;;14.87;100.00;100951.59;3612378;39;20484;-44
2021/08/09 05:06:57;;;;;;;8.57;2.77;;;;;;;14.74;100.00;100963.31;3604394;39;20484;-44
2021/08/09 05:09:26;;;;;;;10.23;3.00;;;;;;;14.78;100.00;100963.50;3611487;39;20831;-47
2021/08/09 05:11:53;;;;;;;8.80;3.37;;;;;;;14.86;100.00;100958.50;3609847;39;20469;-49
2021/08/09 05:14:21;;;;;;;8.77;3.20;;;;;;;14.87;100.00;100956.78;3611896;39;20510;-45
2021/08/09 05:16:49;;;;;;;9.57;3.30;;;;;;;14.77;100.00;100958.25;3610966;39;20462;-47
2021/08/09 05:19:16;;;;;;;9.50;3.20;;;;;;;14.95;100.00;100956.16;3612318;39;20819;-48
2021/08/09 05:21:44;;;;;;;6.67;2.30;;;;;;;14.86;100.00;100961.09;3605892;39;20492;-45
2021/08/09 05:24:11;;;;;;;8.27;3.13;;;;;;;14.76;100.00;100969.50;3612057;39;20514;-44
2021/08/09 05:26:40;;;;;;;7.77;3.10;;;;;;;14.88;100.00;100966.34;3605034;39;20473;-46
2021/08/09 05:29:08;;;;;;;9.13;4.20;;;;;;;14.98;100.00;100968.34;3611784;39;20521;-46
2021/08/09 05:31:36;;;;;;;8.40;2.30;;;;;;;14.94;100.00;100975.19;3603753;39;20832;-49
2021/08/09 05:34:03;;;;;;;16.00;3.80;;;;;;;15.09;100.00;100963.44;3611548;39;20516;-45
2021/08/09 05:36:31;;;;;;;3.43;1.97;;;;;;;14.97;100.00;100964.88;3604384;39;20476;-47
2021/08/09 05:38:59;;;;;;;8.80;3.27;;;;;;;15.08;100.00;100978.13;3611980;39;20682;-49
2021/08/09 05:41:27;;;;;;;10.50;3.07;;;;;;;15.19;100.00;100970.66;3609660;39;20489;-48
2021/08/09 05:43:56;;;;;;;11.03;3.37;;;;;;;15.16;100.00;100970.56;3611964;39;20546;-49
2021/08/09 05:46:23;;;;;;;7.47;2.57;;;;;;;15.20;100.00;100961.13;3607252;39;20474;-44
2021/08/09 05:48:51;;;;;;;9.93;3.77;;;;;;;15.23;100.00;100969.88;3611555;39;20566;-44
2021/08/09 05:51:19;;;;;;;14.70;4.10;;;;;;;15.24;100.00;100976.81;3603892;39;20479;-44
2021/08/09 05:53:46;;;;;;;13.30;3.70;;;;;;;15.23;100.00;100975.06;3611445;39;20510;-49
2021/08/09 05:56:14;;;;;;;9.37;3.27;;;;;;;15.38;100.00;100971.97;3604895;39;20477;-44
2021/08/09 05:58:41;;;;;;;7.40;3.23;;;;;;;15.31;100.00;100963.97;3611588;39;20744;-45
2021/08/09 06:01:10;;;;;;;11.70;3.70;;;;;;;15.42;100.00;100972.06;3608380;39;20480;-48
2021/08/09 06:03:41;;;;;;;8.13;3.30;;;;;;;15.59;100.00;100975.94;3611456;39;20512;-46
2021/08/09 06:06:08;;;;;;;5.80;2.43;;;;;;;15.37;100.00;100977.13;3607647;39;20501;-49
2021/08/09 06:08:36;;;;;;;8.40;3.80;;;;;;;15.63;100.00;100976.91;3610400;39;20813;-47
2021/08/09 06:11:04;;;;;;;7.83;2.67;;;;;;;15.60;100.00;100982.03;3610903;39;20506;-48
2021/08/09 06:13:31;;;;;;;6.80;2.40;;;;;;;15.54;100.00;100988.00;3612137;39;20523;-45
2021/08/09 06:15:59;;;;;;;8.47;2.07;;;;;;;15.47;100.00;100978.25;3603955;39;20874;-47
2021/08/09 06:18:28;;;;;;;9.83;2.70;;;;;;;15.65;100.00;100970.03;3611561;39;20545;-46
2021/08/09 06:20:55;;;;;;;7.40;2.80;;;;;;;15.65;100.00;100976.09;3603766;39;20479;-48
2021/08/09 06:23:23;;;;;;;8.90;3.07;;;;;;;15.80;100.00;100975.59;3611338;39;20520;-46
2021/08/09 06:25:50;;;;;;;10.33;2.90;;;;;;;15.90;100.00;100968.03;3610610;39;20494;-44
2021/08/09 06:28:18;;;;;;;6.70;3.00;;;;;;;15.92;100.00;100966.34;3611815;39;20672;-48
2021/08/09 06:30:46;;;;;;;6.77;3.30;;;;;;;16.03;100.00;100967.50;3610636;39;20498;-48
2021/08/09 06:33:13;;;;;;;10.37;2.70;;;;;;;15.93;100.00;100969.00;3611763;39;20516;-46
2021/08/09 06:35:42;;;;;;;15.13;4.00;;;;;;;16.14;100.00;100970.31;3609919;39;20514;-47
2021/08/09 06:38:10;;;;;;;12.63;3.50;;;;;;;16.14;100.00;100972.94;3611724;39;20512;-46
2021/08/09 06:40:41;;;;;;;6.73;2.30;;;;;;;16.15;100.00;100973.81;3610496;39;20497;-47
2021/08/09 06:43:09;;;;;;;10.77;3.50;;;;;;;16.17;100.00;100974.72;3611388;39;20503;-46
2021/08/09 06:45:40;;;;;;;10.70;4.57;;;;;;;16.45;100.00;100980.50;3605882;39;20546;-46
2021/08/09 06:48:10;;;;;;;16.33;4.30;;;;;;;16.39;100.00;100969.97;3611663;39;20490;-47
2021/08/09 06:50:38;;;;;;;13.20;4.03;;;;;;;16.68;100.00;100970.59;3610745;39;20536;-45
2021/08/09 06:53:07;;;;;;;11.37;4.60;;;;;;;16.68;100.00;100967.97;3611616;39;20520;-49
2021/08/09 06:55:35;;;;;;;11.13;2.90;;;;;;;16.69;100.00;100971.44;3609362;39;20491;-46
2021/08/09 06:58:03;;;;;;;12.97;4.20;;;;;;;16.59;100.00;100971.28;3611579;39;20493;-46
2021/08/09 07:00:31;;;;;;;10.80;3.43;;;;;;;16.59;100.00;100981.69;3608725;39;20508;-47
2021/08/09 07:03:05;;;;;;;11.83;3.87;;;;;;;16.57;100.00;100987.72;3608994;39;20505;-46
2021/08/09 07:05:39;;;;;;;16.47;5.97;;;;;;;16.56;100.00;100986.81;3609556;39;20509;-45
2021/08/09 07:08:08;;;;;;;11.57;4.00;;;;;;;16.58;100.00;100990.38;3611293;39;20515;-46
2021/08/09 07:10:36;;;;;;;11.37;3.83;;;;;;;16.55;100.00;100982.47;3608932;39;20519;-45
2021/08/09 07:13:04;;;;;;;12.43;4.80;;;;;;;16.60;100.00;100983.44;3611155;39;20530;-47
2021/08/09 07:15:32;;;;;;;18.63;5.83;;;;;;;16.73;100.00;100987.16;3608504;39;20502;-48
2021/08/09 07:17:59;;;;;;;18.53;6.20;;;;;;;16.79;100.00;100988.13;3611199;39;20505;-46
2021/08/09 07:20:27;;;;;;;12.60;3.80;;;;;;;16.93;100.00;100988.41;3609629;39;20737;-45
2021/08/09 07:22:55;;;;;;;13.70;4.40;;;;;;;16.85;100.00;100978.72;3611117;39;20719;-45
2021/08/09 07:25:24;;;;;;;12.03;5.07;;;;;;;16.72;100.00;100990.63;3609498;39;20497;-46
2021/08/09 07:27:51;;;;;;;25.07;9.57;;;;;;;16.72;100.00;100989.75;3610892;39;20504;-46
2021/08/09 07:30:20;;;;;;;28.07;8.17;;;;;;;16.80;100.00;100992.50;3609327;39;20511;-46
2021/08/09 07:32:48;;;;;;;16.53;4.80;;;;;;;16.81;100.00;100994.28;3610754;39;20569;-49
2021/08/09 07:35:15;;;;;;;10.53;3.60;;;;;;;16.70;100.00;100987.13;3610244;39;20517;-44
2021/08/09 07:37:48;;;;;;;26.20;8.97;;;;;;;16.72;100.00;100987.16;3610988;39;20456;-45
2021/08/09 07:40:18;;;;;;;20.33;6.37;;;;;;;16.71;100.00;100991.47;3611124;39;20506;-44
2021/08/09 07:42:51;;;;;;;26.90;9.50;;;;;;;16.79;100.00;100994.25;3610226;39;20458;-46
2021/08/09 07:45:19;;;;;;;47.87;19.90;;;;;;;16.92;100.00;100978.84;3610711;39;20509;-44
2021/08/09 07:47:51;;;;;;;9.47;3.20;;;;;;;17.03;100.00;100985.19;3610598;39;20515;-46
2021/08/09 07:50:20;;;;;;;15.97;6.20;;;;;;;17.00;100.00;100985.97;3610079;39;20520;-44
2021/08/09 07:52:47;;;;;;;10.73;6.00;;;;;;;17.10;100.00;100981.84;3610217;39;20500;-44
2021/08/09 07:55:15;;;;;;;15.17;4.67;;;;;;;17.20;100.00;100988.09;3611066;39;20531;-45
2021/08/09 07:57:43;;;;;;;19.00;7.30;;;;;;;17.20;100.00;100988.09;3610256;39;20460;-48
2021/08/09 08:00:14;;;;;;;13.27;5.30;;;;;;;17.06;100.00;100987.81;3610735;39;20509;-47
2021/08/09 08:02:42;;;;;;;19.33;6.30;;;;;;;17.20;100.00;100987.19;3609931;39;20469;-49
2021/08/09 08:05:10;;;;;;;11.93;5.33;;;;;;;17.38;100.00;100989.28;3610919;39;20539;-46
2021/08/09 08:07:38;;;;;;;13.27;5.53;;;;;;;17.46;100.00;100994.59;3596511;39;20497;-46
2021/08/09 08:10:06;;;;;;;9.97;3.80;;;;;;;17.55;100.00;100997.38;3609495;39;20500;-45
2021/08/09 08:12:34;;;;;;;21.60;7.53;;;;;;;17.38;100.00;100992.75;3607759;39;20478;-45
2021/08/09 08:15:02;;;;;;;21.70;5.23;;;;;;;17.59;100.00;100993.94;3610532;39;20521;-44
2021/08/09 08:17:31;;;;;;;9.60;3.87;;;;;;;17.62;100.00;100996.63;3607472;39;20748;-44
2021/08/09 08:19:59;;;;;;;16.13;6.67;;;;;;;17.60;100.00;101000.94;3591767;39;20487;-48
2021/08/09 08:22:26;;;;;;;33.87;8.47;;;;;;;17.62;100.00;101001.84;3617013;39;20477;-45
2021/08/09 08:24:54;;;;;;;25.87;5.97;;;;;;;17.52;100.00;101010.34;3620542;39;20503;-45
2021/08/09 08:27:21;;;;;;;11.33;3.60;;;;;;;17.73;100.00;101022.03;3606978;39;20556;-44
2021/08/09 08:29:49;;;;;;;15.60;4.60;;;;;;;17.91;100.00;101013.59;3600596;39;20511;-45
2021/08/09 08:32:17;;;;;;;18.40;6.10;;;;;;;17.98;100.00;101019.75;3596296;39;20494;-47
2021/08/09 08:34:45;;;;;;;15.87;6.00;;;;;;;17.76;100.00;101025.56;3607482;39;20521;-46
2021/08/09 08:37:13;;;;;;;20.83;9.80;;;;;;;17.85;100.00;101019.59;3605984;39;20457;-46
2021/08/09 08:39:41;;;;;;;12.17;4.10;;;;;;;17.94;100.00;101024.97;3610572;39;20535;-49
2021/08/09 08:42:08;;;;;;;24.87;8.80;;;;;;;17.96;100.00;101022.38;3608554;39;20541;-47
2021/08/09 08:44:36;;;;;;;66.93;19.60;;;;;;;18.10;100.00;101022.59;3610159;39;20507;-46
2021/08/09 08:47:04;;;;;;;11.07;3.60;;;;;;;18.13;100.00;101029.59;3608351;39;20884;-45
2021/08/09 08:49:32;;;;;;;23.77;8.03;;;;;;;17.97;100.00;101031.97;3610537;39;20495;-47
2021/08/09 08:52:01;;;;;;;16.40;4.03;;;;;;;17.95;100.00;101029.31;3608464;39;20492;-46
2021/08/09 08:54:29;;;;;;;18.07;5.90;;;;;;;18.08;100.00;101026.94;3610468;39;20554;-45
2021/08/09 08:56:56;;;;;;;8.57;3.10;;;;;;;18.05;100.00;101037.31;3608250;39;20472;-49
2021/08/09 08:59:24;;;;;;;12.03;4.43;;;;;;;18.08;100.00;101035.66;3610364;39;20504;-50
2021/08/09 09:01:52;;;;;;;8.40;3.10;;;;;;;18.40;100.00;101039.56;3609999;39;20503;-47
2021/08/09 09:04:24;;;;;;;8.50;3.53;;;;;;;18.46;100.00;101044.88;3610324;39;20506;-50
2021/08/09 09:07:01;;;;;;;17.43;5.30;;;;;;;18.57;100.00;101031.09;3608220;39;20483;-45
2021/08/09 09:09:30;;;;;;;11.23;3.10;;;;;;;18.55;100.00;101030.19;3592267;39;20502;-48
2021/08/09 09:12:00;;;;;;;11.43;3.40;;;;;;;18.76;100.00;101038.28;3607921;39;20814;-45
2021/08/09 09:14:29;;;;;;;16.27;5.37;;;;;;;18.46;100.00;101037.03;3610204;39;20503;-47
2021/08/09 09:16:58;;;;;;;21.57;6.30;;;;;;;18.70;100.00;101035.59;3601958;39;20519;-47
2021/08/09 09:19:31;;;;;;;12.50;3.30;;;;;;;18.73;100.00;101034.78;3599908;39;20496;-46
2021/08/09 09:21:59;;;;;;;19.13;4.30;;;;;;;18.65;100.00;101037.28;3605903;39;20480;-45
2021/08/09 09:24:28;;;;;;;21.97;6.57;;;;;;;18.74;100.00;101039.13;3610195;39;20703;-49
2021/08/09 09:26:57;;;;;;;35.73;11.07;;;;;;;18.82;100.00;101042.72;3607330;39;20463;-48
2021/08/09 09:29:26;;;;;;;20.07;5.20;;;;;;;18.68;100.00;101042.56;3610012;39;20511;-49
2021/08/09 09:31:54;;;;;;;11.50;4.43;;;;;;;18.59;100.00;101042.44;3605593;39;20492;-47
2021/08/09 09:34:23;;;;;;;12.97;3.57;;;;;;;18.60;100.00;101044.19;3610084;39;20497;-46
2021/08/09 09:36:53;;;;;;;13.00;3.30;;;;;;;18.63;100.00;101052.94;3601304;39;20484;-49
2021/08/09 09:39:29;;;;;;;8.93;3.13;;;;;;;18.66;100.00;101053.84;3610817;39;20697;-47
2021/08/09 09:41:58;;;;;;;8.70;3.80;;;;;;;19.00;100.00;101059.47;3605542;39;20483;-48
2021/08/09 09:44:27;;;;;;;12.23;3.43;;;;;;;19.25;100.00;101067.63;3601473;39;20495;-45
2021/08/09 09:47:19;;;;;;;7.90;3.70;;;;;;;19.36;100.00;101050.31;3610823;39;20460;-45
2021/08/09 09:49:47;;;;;;;16.10;4.30;;;;;;;19.92;100.00;101042.94;3609441;39;20721;-47
2021/08/09 09:52:32;;;;;;;19.93;6.07;;;;;;;19.83;100.00;101045.47;3609490;39;20499;-45
2021/08/09 09:55:03;;;;;;;9.03;2.90;;;;;;;19.64;100.00;101052.31;3610241;39;20839;-51
2021/08/09 09:57:34;;;;;;;17.47;5.17;;;;;;;19.60;100.00;101053.16;3603829;39;20521;-50
2021/08/09 10:00:04;;;;;;;10.30;3.67;;;;;;;19.71;100.00;101061.97;3611797;39;20549;-51
2021/08/09 10:02:32;;;;;;;45.60;18.43;;;;;;;19.56;100.00;101055.75;3603567;39;20469;-49
2021/08/09 10:05:01;;;;;;;27.60;9.63;;;;;;;19.49;100.00;101059.16;3610944;39;20491;-51
2021/08/09 10:07:29;;;;;;;12.00;4.50;;;;;;;19.89;100.00;101050.75;3606209;39;20467;-46
2021/08/09 10:10:02;;;;;;;18.40;8.20;;;;;;;20.02;100.00;101057.03;3611223;39;20523;-49
2021/08/09 10:12:31;;;;;;;16.33;4.63;;;;;;;19.76;100.00;101057.66;3609257;39;20465;-51
2021/08/09 10:14:59;;;;;;;11.10;3.57;;;;;;;20.16;100.00;101053.63;3584841;39;20731;-47
2021/08/09 10:17:28;;;;;;;15.33;4.83;;;;;;;20.52;100.00;101046.84;3602330;39;20493;-48
2021/08/09 10:19:57;;;;;;;16.30;3.90;;;;;;;20.82;100.00;101049.59;3611708;39;20507;-45
2021/08/09 10:22:25;;;;;;;11.90;3.40;;;;;;;20.66;100.00;101046.88;3610756;39;20485;-46
2021/08/09 10:24:57;;;;;;;9.83;3.50;;;;;;;20.48;100.00;101056.44;3611611;39;20564;-52
2021/08/09 10:27:56;;;;;;;11.53;3.40;;;;;;;20.62;100.00;101051.25;3608306;39;20493;-52
2021/08/09 10:30:24;;;;;;;6.77;1.87;;;;;;;20.28;100.00;101053.69;3608735;39;20705;-48
2021/08/09 10:32:55;;;;;;;38.47;8.80;;;;;;;20.59;100.00;101051.25;3611255;39;20499;-49
2021/08/09 10:36:04;;;;;;;19.30;5.97;;;;;;;20.42;100.00;101053.78;3604078;39;20507;-52
2021/08/09 10:38:37;;;;;;;27.43;7.93;;;;;;;20.20;100.00;101058.88;3609961;39;20508;-51
2021/08/09 10:41:41;;;;;;;6.90;2.50;;;;;;;20.19;100.00;101064.09;3608998;39;20478;-49
2021/08/09 10:44:24;;;;;;;15.17;4.20;;;;;;;20.21;100.00;101065.00;3611347;39;20499;-50
2021/08/09 10:46:53;;;;;;;26.67;6.83;;;;;;;20.04;100.00;101071.00;3609338;39;20485;-48
2021/08/09 10:49:57;;;;;;;9.13;2.87;;;;;;;19.95;100.00;101076.13;3611473;39;20510;-48
2021/08/09 10:52:39;;;;;;;22.93;5.70;;;;;;;20.24;100.00;101071.13;3608354;39;20670;-50
2021/08/09 10:55:46;;;;;;;10.10;2.40;;;;;;;20.32;100.00;101071.19;3609407;39;20556;-49
2021/08/09 10:58:55;;;;;;;8.83;2.33;;;;;;;20.47;100.00;101077.38;3609950;39;20448;-48
2021/08/09 11:01:25;;;;;;;6.40;1.57;;;;;;;20.23;100.00;101076.34;3610183;39;20527;-47
2021/08/09 11:04:14;;;;;;;7.87;2.37;;;;;;;20.16;100.00;101069.34;3610562;39;20508;-51
2021/08/09 11:06:45;;;;;;;5.70;2.00;;;;;;;20.28;100.00;101073.75;3608574;39;20677;-50
2021/08/09 11:09:44;;;;;;;8.50;1.83;;;;;;;20.34;100.00;101079.94;3610532;39;20491;-48
2021/08/09 11:12:28;;;;;;;5.70;2.00;;;;;;;20.50;100.00;101074.75;3606760;39;20783;-45
2021/08/09 11:15:22;;;;;;;6.33;2.87;;;;;;;20.40;100.00;101078.22;3608737;39;20539;-46
2021/08/09 11:17:54;;;;;;;7.17;2.13;;;;;;;20.32;100.00;101076.44;3610081;39;20450;-50
2021/08/09 11:20:24;;;;;;;11.77;2.20;;;;;;;20.66;100.00;101070.47;3595337;39;20503;-46
2021/08/09 11:23:01;;;;;;;8.83;2.37;;;;;;;20.76;100.00;101076.63;3610260;39;20504;-46
2021/08/09 11:25:34;;;;;;;4.20;1.43;;;;;;;20.60;100.00;101081.81;3608687;39;20499;-47
2021/08/09 11:28:10;;;;;;;7.50;1.70;;;;;;;20.37;100.00;101072.06;3610152;39;20500;-44